Time;durP1;ratioP1;P1;durP2;ratioP2;P2;SDS_P1;SDS_P2;PMS_P1;PMS_P2;Temp;Humidity;BMP_temperature;BMP_pressure;BME280_temperature;BME280_humidity;BME280_pressure;Samples;Min_cycle;Max_cycle;Signal;HPM_P1;HPM_P2
2021/11/22 00:00:25;;;;;;;10.82;7.12;;;;;;;8.64;85.53;99265.44;1818954;78;21489;-75
2021/11/22 00:02:53;;;;;;;11.33;6.97;;;;;;;8.63;85.70;99263.27;1779896;80;21048;-74
2021/11/22 00:05:21;;;;;;;9.23;7.00;;;;;;;8.63;85.91;99262.40;1767772;80;21083;-75
2021/11/22 00:07:48;;;;;;;9.90;6.37;;;;;;;8.61;85.80;99270.36;1758538;81;21095;-74
2021/11/22 00:10:17;;;;;;;10.35;6.37;;;;;;;8.59;86.35;99262.55;1758732;81;21020;-74
2021/11/22 00:12:44;;;;;;;11.48;7.00;;;;;;;8.60;85.83;99275.20;1758956;81;21435;-74
2021/11/22 00:15:15;;;;;;;10.55;6.72;;;;;;;8.57;86.53;99267.00;1758742;81;21041;-74
2021/11/22 00:17:43;;;;;;;11.83;7.03;;;;;;;8.57;87.66;99273.56;1754730;80;21036;-75
2021/11/22 00:20:13;;;;;;;10.65;7.35;;;;;;;8.56;88.24;99277.12;1748416;80;21311;-75
2021/11/22 00:22:40;;;;;;;10.35;6.95;;;;;;;8.55;88.13;99279.33;1778390;80;21028;-76
2021/11/22 00:25:07;;;;;;;10.55;6.62;;;;;;;8.58;88.36;99290.16;1778965;79;21504;-73
2021/11/22 00:27:38;;;;;;;10.43;6.50;;;;;;;8.55;87.73;99280.64;1778460;80;21288;-74
2021/11/22 00:30:07;;;;;;;11.93;7.70;;;;;;;8.56;86.93;99286.30;1776287;80;21040;-74
2021/11/22 00:32:36;;;;;;;11.83;7.12;;;;;;;8.55;87.12;99289.83;1777803;80;21120;-74
2021/11/22 00:35:20;;;;;;;11.25;7.25;;;;;;;8.53;86.77;99286.88;1687500;84;21230;-72
2021/11/22 00:37:51;;;;;;;11.97;7.25;;;;;;;8.48;86.16;99289.70;1719060;82;21154;-73
2021/11/22 00:40:16;;;;;;;11.22;6.58;;;;;;;8.48;86.33;99294.94;1746758;82;21041;-73
2021/11/22 00:42:45;;;;;;;10.58;7.03;;;;;;;8.47;86.92;99293.25;1747065;82;21033;-72
2021/11/22 00:45:13;;;;;;;11.05;7.30;;;;;;;8.47;87.79;99295.88;1747103;82;21072;-73
2021/11/22 00:47:40;;;;;;;12.37;7.17;;;;;;;8.45;88.37;99295.08;1746736;82;21032;-73
2021/11/22 00:50:07;;;;;;;10.18;7.12;;;;;;;8.45;88.21;99308.20;1747180;82;21547;-73
2021/11/22 00:52:34;;;;;;;10.80;6.95;;;;;;;8.44;88.51;99306.94;1747355;82;21595;-74
2021/11/22 00:55:01;;;;;;;11.90;7.17;;;;;;;8.43;89.10;99306.09;1755447;80;20998;-75
2021/11/22 00:57:28;;;;;;;11.60;7.05;;;;;;;8.42;88.24;99312.27;1776598;80;21049;-75
2021/11/22 00:59:55;;;;;;;12.45;7.83;;;;;;;8.42;89.15;99310.08;1746780;80;20971;-75
2021/11/22 01:02:22;;;;;;;14.05;8.00;;;;;;;8.40;89.17;99312.79;1701408;84;21809;-73
2021/11/22 01:04:49;;;;;;;15.20;7.75;;;;;;;8.39;89.56;99316.28;1702330;84;20922;-73
2021/11/22 01:07:16;;;;;;;10.93;7.45;;;;;;;8.39;89.35;99328.09;1702323;84;21014;-75
2021/11/22 01:09:43;;;;;;;10.50;7.10;;;;;;;8.39;88.80;99325.46;1701625;83;21349;-73
2021/11/22 01:12:10;;;;;;;14.00;7.92;;;;;;;8.38;88.89;99329.02;1702229;84;21481;-73
2021/11/22 01:14:39;;;;;;;11.78;8.20;;;;;;;8.38;87.70;99319.83;1701754;84;20939;-74
2021/11/22 01:17:06;;;;;;;12.73;8.40;;;;;;;8.36;87.74;99324.28;1700696;84;20903;-76
2021/11/22 01:19:33;;;;;;;13.18;8.18;;;;;;;8.34;88.17;99323.49;1700572;84;20915;-71
2021/11/22 01:22:00;;;;;;;14.10;7.85;;;;;;;8.31;87.61;99315.76;1700620;84;20982;-72
2021/11/22 01:24:27;;;;;;;12.75;7.92;;;;;;;8.30;87.78;99311.41;1700726;83;20907;-72
2021/11/22 01:26:53;;;;;;;11.88;7.97;;;;;;;8.26;87.83;99318.56;1701990;84;21113;-72
2021/11/22 01:29:21;;;;;;;11.18;7.47;;;;;;;8.25;88.42;99321.24;1702013;84;20950;-72
2021/11/22 01:31:47;;;;;;;13.78;8.75;;;;;;;8.24;89.34;99322.17;1701139;84;20903;-73
2021/11/22 01:34:14;;;;;;;11.10;7.35;;;;;;;8.23;89.49;99325.69;1700760;84;20947;-72
2021/11/22 01:36:41;;;;;;;13.28;8.45;;;;;;;8.19;89.72;99328.45;1701821;84;21062;-72
2021/11/22 01:39:08;;;;;;;14.53;8.00;;;;;;;8.19;89.99;99325.83;1702340;84;21177;-71
2021/11/22 01:41:35;;;;;;;13.00;8.53;;;;;;;8.18;90.45;99330.66;1702080;84;20979;-71
2021/11/22 01:44:02;;;;;;;11.95;8.35;;;;;;;8.14;90.73;99327.78;1702287;84;20993;-71
2021/11/22 01:46:31;;;;;;;11.43;7.83;;;;;;;8.13;91.28;99331.30;1702233;84;20985;-72
2021/11/22 01:48:59;;;;;;;14.45;8.18;;;;;;;8.11;92.11;99330.51;1702292;84;20935;-71
2021/11/22 01:51:27;;;;;;;11.43;7.70;;;;;;;8.09;92.13;99331.02;1702289;84;21170;-71
2021/11/22 01:53:54;;;;;;;10.95;8.08;;;;;;;8.05;91.57;99329.89;1702212;84;20977;-71
2021/11/22 01:56:21;;;;;;;12.47;8.40;;;;;;;8.01;90.55;99330.95;1701971;84;20938;-70
2021/11/22 01:58:48;;;;;;;13.00;8.43;;;;;;;7.97;92.19;99335.45;1702158;82;21841;-70
2021/11/22 02:01:15;;;;;;;14.30;8.25;;;;;;;7.95;92.32;99334.65;1704158;84;20995;-70
2021/11/22 02:03:42;;;;;;;12.00;8.28;;;;;;;7.96;91.88;99344.25;1704517;84;21817;-69
2021/11/22 02:06:11;;;;;;;12.13;7.55;;;;;;;7.96;92.17;99338.53;1705760;84;20930;-70
2021/11/22 02:08:37;;;;;;;14.95;8.30;;;;;;;7.97;91.96;99344.63;1705658;84;21603;-72
2021/11/22 02:11:05;;;;;;;14.28;9.15;;;;;;;7.97;92.50;99342.00;1705926;84;20973;-71
2021/11/22 02:13:32;;;;;;;14.87;9.85;;;;;;;7.96;92.34;99342.93;1705576;84;20994;-70
2021/11/22 02:15:59;;;;;;;14.25;8.95;;;;;;;7.97;92.47;99343.31;1706006;84;21051;-71
2021/11/22 02:18:26;;;;;;;12.13;8.35;;;;;;;7.96;92.78;99345.09;1705392;83;20958;-71
2021/11/22 02:20:53;;;;;;;13.32;8.53;;;;;;;7.97;92.56;99348.56;1705904;84;20946;-71
2021/11/22 02:23:20;;;;;;;11.18;7.50;;;;;;;7.94;92.32;99345.61;1705918;84;20926;-75
2021/11/22 02:25:47;;;;;;;13.20;9.20;;;;;;;7.92;93.33;99350.52;1706252;82;21513;-75
2021/11/22 02:28:15;;;;;;;13.75;8.28;;;;;;;7.86;93.79;99352.05;1705679;84;21802;-72
2021/11/22 02:30:44;;;;;;;13.70;8.78;;;;;;;7.81;93.83;99350.06;1704892;84;21009;-72
2021/11/22 02:33:20;;;;;;;14.73;8.83;;;;;;;7.73;94.33;99351.22;1704322;84;21058;-71
2021/11/22 02:35:52;;;;;;;14.10;9.05;;;;;;;7.67;95.08;99354.05;1704649;84;20894;-71
2021/11/22 02:38:21;;;;;;;11.40;7.90;;;;;;;7.62;94.76;99363.86;1705797;84;21458;-71
2021/11/22 02:40:48;;;;;;;13.08;8.30;;;;;;;7.57;94.90;99360.56;1705600;83;21136;-72
2021/11/22 02:43:17;;;;;;;15.25;9.65;;;;;;;7.52;95.36;99359.42;1705714;83;20914;-73
2021/11/22 02:45:46;;;;;;;13.35;8.88;;;;;;;7.51;96.13;99366.02;1705681;84;20978;-72
2021/11/22 02:48:13;;;;;;;14.25;8.80;;;;;;;7.50;95.78;99366.91;1705808;84;20989;-70
2021/11/22 02:50:40;;;;;;;12.88;8.00;;;;;;;7.50;96.09;99366.91;1705663;84;20966;-72
2021/11/22 02:53:06;;;;;;;11.63;7.65;;;;;;;7.51;95.78;99372.57;1705854;83;21107;-71
2021/11/22 02:55:33;;;;;;;13.58;8.30;;;;;;;7.53;96.73;99372.91;1705653;84;21587;-72
2021/11/22 02:57:59;;;;;;;14.13;8.98;;;;;;;7.54;96.34;99371.14;1705756;84;21007;-72
2021/11/22 03:00:28;;;;;;;13.25;8.95;;;;;;;7.55;96.66;99376.33;1705457;83;20993;-72
2021/11/22 03:02:55;;;;;;;13.05;8.78;;;;;;;7.56;96.70;99376.72;1705671;84;21469;-71
2021/11/22 03:05:22;;;;;;;13.40;8.63;;;;;;;7.56;96.27;99387.66;1705587;83;21790;-72
2021/11/22 03:07:50;;;;;;;15.55;10.10;;;;;;;7.56;96.00;99380.64;1705438;84;20962;-73
2021/11/22 03:10:17;;;;;;;16.95;8.10;;;;;;;7.57;95.91;99386.77;1705808;84;20978;-73
2021/11/22 03:12:44;;;;;;;13.43;8.55;;;;;;;7.57;96.00;99392.01;1705671;84;20983;-72
2021/11/22 03:15:15;;;;;;;12.07;8.30;;;;;;;7.56;96.11;99395.52;1705777;83;20915;-72
2021/11/22 03:17:42;;;;;;;19.43;10.20;;;;;;;7.52;95.78;99389.55;1705933;84;22243;-73
2021/11/22 03:20:12;;;;;;;12.10;7.85;;;;;;;7.53;95.58;99403.50;1705506;84;21438;-71
2021/11/22 03:22:39;;;;;;;14.53;9.55;;;;;;;7.50;96.47;99399.66;1705490;84;20954;-72
2021/11/22 03:25:07;;;;;;;14.43;9.38;;;;;;;7.45;96.16;99402.91;1705650;84;21025;-72
2021/11/22 03:27:35;;;;;;;13.50;8.73;;;;;;;7.39;96.02;99406.62;1705389;84;21469;-72
2021/11/22 03:30:04;;;;;;;14.15;9.00;;;;;;;7.32;96.80;99405.13;1705588;83;21845;-73
2021/11/22 03:32:32;;;;;;;12.45;8.33;;;;;;;7.18;97.00;99421.33;1705992;84;20994;-72
2021/11/22 03:34:59;;;;;;;14.05;8.10;;;;;;;7.18;97.00;99421.33;1705658;84;21488;-72
2021/11/22 03:37:25;;;;;;;12.10;7.85;;;;;;;7.09;97.02;99421.17;1661264;84;20962;-71
2021/11/22 03:39:54;;;;;;;11.97;8.30;;;;;;;7.03;97.76;99421.84;1660506;86;21007;-71
2021/11/22 03:42:23;;;;;;;11.83;8.35;;;;;;;6.99;97.69;99433.31;1660436;86;21042;-71
2021/11/22 03:44:50;;;;;;;14.15;8.85;;;;;;;6.91;97.73;99435.73;1660350;86;21467;-73
2021/11/22 03:47:16;;;;;;;14.23;9.10;;;;;;;6.87;97.96;99435.89;1660552;86;20968;-73
2021/11/22 03:49:43;;;;;;;12.90;8.33;;;;;;;6.82;98.43;99439.11;1660614;85;20989;-71
2021/11/22 03:52:10;;;;;;;14.05;8.40;;;;;;;6.78;99.25;99443.58;1660623;86;21149;-74
2021/11/22 03:54:38;;;;;;;12.05;7.33;;;;;;;6.77;99.43;99447.11;1660521;86;21118;-74
2021/11/22 03:57:05;;;;;;;12.07;8.35;;;;;;;6.75;99.85;99448.92;1660391;86;21040;-74
2021/11/22 03:59:32;;;;;;;14.25;8.45;;;;;;;6.73;100.00;99454.66;1660305;86;21031;-75
2021/11/22 04:01:59;;;;;;;11.22;7.03;;;;;;;6.71;99.85;99453.84;1663440;85;21022;-72
2021/11/22 04:04:25;;;;;;;11.90;7.37;;;;;;;6.68;100.00;99458.73;1664102;86;21037;-74
2021/11/22 04:06:52;;;;;;;11.25;7.58;;;;;;;6.66;99.79;99457.06;1664469;86;21085;-72
2021/11/22 04:09:19;;;;;;;13.10;8.45;;;;;;;6.63;99.64;99465.02;1664144;86;21030;-73
2021/11/22 04:11:46;;;;;;;13.20;8.05;;;;;;;6.59;99.57;99466.02;1664443;86;21030;-73
2021/11/22 04:14:12;;;;;;;12.55;7.95;;;;;;;6.56;100.00;99472.66;1664091;86;21002;-72
2021/11/22 04:16:41;;;;;;;10.80;7.25;;;;;;;6.55;100.00;99477.47;1664328;85;20946;-74
2021/11/22 04:19:08;;;;;;;14.70;7.42;;;;;;;6.53;100.00;99477.51;1664167;86;21196;-73
2021/11/22 04:21:35;;;;;;;13.50;7.05;;;;;;;6.49;100.00;99480.69;1664140;85;21018;-73
2021/11/22 04:24:02;;;;;;;10.15;6.60;;;;;;;6.49;100.00;99483.30;1664179;86;21061;-74
2021/11/22 04:26:28;;;;;;;12.50;6.75;;;;;;;6.49;100.00;99484.61;1663051;84;20990;-74
2021/11/22 04:28:55;;;;;;;16.15;6.60;;;;;;;6.48;100.00;99495.96;1700637;84;20999;-75
2021/11/22 04:31:22;;;;;;;9.48;5.95;;;;;;;6.49;100.00;99492.92;1700371;84;21101;-79
2021/11/22 04:33:49;;;;;;;13.05;7.50;;;;;;;6.50;100.00;99503.77;1701079;84;21509;-79
2021/11/22 04:36:16;;;;;;;9.98;5.92;;;;;;;6.46;100.00;99503.00;1696692;84;20975;-79
2021/11/22 04:38:43;;;;;;;12.88;6.87;;;;;;;6.44;100.00;99507.45;1682663;84;21000;-80
2021/11/22 04:41:10;;;;;;;10.23;6.37;;;;;;;6.45;100.00;99514.38;1701175;84;20995;-81
2021/11/22 04:43:38;;;;;;;10.18;6.28;;;;;;;6.43;100.00;99516.17;1701054;84;21563;-81
2021/11/22 04:46:04;;;;;;;9.20;5.90;;;;;;;6.41;100.00;99521.91;1700718;84;21022;-79
2021/11/22 04:48:33;;;;;;;8.15;5.83;;;;;;;6.40;100.00;99526.74;1700953;84;20986;-80
2021/11/22 04:50:59;;;;;;;12.68;6.50;;;;;;;6.39;100.00;99528.93;1700485;84;20963;-74
2021/11/22 04:53:26;;;;;;;9.38;5.22;;;;;;;6.38;100.00;99528.54;1701594;84;20995;-76
2021/11/22 04:55:54;;;;;;;8.70;5.45;;;;;;;6.39;100.00;99534.16;1629842;86;22689;-76
2021/11/22 04:58:20;;;;;;;8.98;5.35;;;;;;;6.40;100.00;99538.52;1664028;85;20962;-75
2021/11/22 05:00:48;;;;;;;8.98;5.67;;;;;;;6.40;100.00;99535.05;1669565;84;21544;-80
2021/11/22 05:03:15;;;;;;;9.28;5.45;;;;;;;6.42;100.00;99552.41;1703793;83;21061;-80
2021/11/22 05:05:43;;;;;;;10.45;5.78;;;;;;;6.41;100.00;99555.91;1723057;83;21031;-71
2021/11/22 05:08:10;;;;;;;10.95;5.72;;;;;;;6.39;100.00;99560.31;1722788;83;21804;-75
2021/11/22 05:10:41;;;;;;;9.58;5.40;;;;;;;6.38;100.00;99561.23;1688993;85;21445;-76
2021/11/22 05:13:10;;;;;;;9.33;5.25;;;;;;;6.38;100.00;99565.16;1671392;85;21896;-73
2021/11/22 05:15:37;;;;;;;9.95;5.67;;;;;;;6.37;100.00;99563.42;1671278;85;21008;-73
2021/11/22 05:18:07;;;;;;;7.80;4.62;;;;;;;6.34;100.00;99576.60;1668094;85;21045;-74
2021/11/22 05:20:36;;;;;;;9.00;5.53;;;;;;;6.32;100.00;99575.78;1670439;85;21158;-74
2021/11/22 05:23:03;;;;;;;9.20;4.85;;;;;;;6.31;100.00;99587.16;1667142;85;20988;-73
2021/11/22 05:25:32;;;;;;;9.53;5.40;;;;;;;6.28;100.00;99596.37;1654918;84;20989;-74
2021/11/22 05:27:59;;;;;;;10.23;5.45;;;;;;;6.27;100.00;99599.45;1646976;86;21517;-73
2021/11/22 05:30:28;;;;;;;8.70;5.25;;;;;;;6.27;100.00;99602.52;1669673;86;21038;-74
2021/11/22 05:32:59;;;;;;;9.68;4.75;;;;;;;6.29;100.00;99605.95;1669889;85;21102;-75
2021/11/22 05:35:26;;;;;;;;;;;;;;;6.28;100.00;99616.88;1671644;85;21640;-74
2021/11/22 05:37:53;;;;;;;9.23;5.42;;;;;;;6.26;100.00;99620.44;1671255;85;20229;-74
2021/11/22 05:40:20;;;;;;;9.05;4.50;;;;;;;6.23;100.00;99617.88;1671071;85;21468;-74
2021/11/22 05:42:49;;;;;;;9.13;4.80;;;;;;;6.25;100.00;99629.16;1671283;85;21533;-74
2021/11/22 05:45:16;;;;;;;10.30;5.25;;;;;;;6.27;100.00;99632.59;1671131;85;21868;-74
2021/11/22 05:47:43;;;;;;;7.83;4.92;;;;;;;6.24;100.00;99631.38;1671259;85;21045;-74
2021/11/22 05:50:09;;;;;;;12.20;6.00;;;;;;;6.20;100.00;99638.44;1671186;85;21020;-75
2021/11/22 05:52:38;;;;;;;9.15;5.78;;;;;;;6.19;99.93;99639.77;1671192;85;20989;-73
2021/11/22 05:55:09;;;;;;;8.18;5.20;;;;;;;6.16;99.93;99646.41;1671250;85;21057;-74
2021/11/22 05:57:36;;;;;;;12.80;5.37;;;;;;;6.13;99.83;99646.50;1669689;86;21596;-75
2021/11/22 06:00:05;;;;;;;10.35;4.40;;;;;;;6.12;99.87;99640.84;1670567;84;21464;-73
2021/11/22 06:02:34;;;;;;;9.43;4.75;;;;;;;6.13;99.79;99650.42;1645957;85;21006;-74
2021/11/22 06:05:01;;;;;;;11.00;6.00;;;;;;;6.12;99.80;99653.48;1647422;86;21057;-74
2021/11/22 06:07:27;;;;;;;39.20;20.40;;;;;;;6.12;99.89;99656.53;1647614;87;21039;-74
2021/11/22 06:09:54;;;;;;;50.50;24.82;;;;;;;6.13;100.00;99663.03;1640547;87;21104;-74
2021/11/22 06:12:20;;;;;;;17.35;9.38;;;;;;;6.17;100.00;99670.36;1647452;87;21017;-73
2021/11/22 06:14:47;;;;;;;14.50;7.65;;;;;;;6.21;100.00;99671.55;1647448;87;20954;-74
2021/11/22 06:17:14;;;;;;;20.35;11.57;;;;;;;6.26;100.00;99678.81;1647699;87;21014;-74
2021/11/22 06:19:40;;;;;;;21.57;12.00;;;;;;;6.33;100.00;99670.78;1624805;87;21042;-75
2021/11/22 06:22:07;;;;;;;14.20;5.22;;;;;;;6.42;100.00;99677.07;1647563;87;21840;-74
2021/11/22 06:24:34;;;;;;;8.55;5.00;;;;;;;6.55;100.00;99684.15;1643037;87;20994;-75
2021/11/22 06:27:03;;;;;;;7.85;5.12;;;;;;;6.68;100.00;99690.77;1633517;87;21005;-74
2021/11/22 06:29:31;;;;;;;5.42;3.52;;;;;;;6.86;100.00;99686.31;1657422;84;21026;-74
2021/11/22 06:31:58;;;;;;;6.08;3.55;;;;;;;7.34;98.62;99683.59;1681269;84;21038;-73
2021/11/22 06:34:25;;;;;;;8.30;4.15;;;;;;;7.72;95.95;99684.12;1620168;87;21035;-74
2021/11/22 06:36:52;;;;;;;10.43;3.70;;;;;;;8.03;95.70;99690.54;1657783;84;21553;-74
2021/11/22 06:39:19;;;;;;;5.90;3.22;;;;;;;8.29;94.26;99694.04;1671925;84;20987;-75
2021/11/22 06:41:48;;;;;;;12.07;3.47;;;;;;;8.54;92.41;99694.92;1677543;84;21529;-74
2021/11/22 06:44:14;;;;;;;12.85;5.72;;;;;;;8.68;87.34;99694.42;1622379;87;21552;-73
2021/11/22 06:46:44;;;;;;;25.80;11.78;;;;;;;8.72;85.88;99700.41;1636113;85;21112;-74
2021/11/22 06:49:10;;;;;;;3.98;2.52;;;;;;;8.76;85.50;99708.58;1634266;86;21038;-74
2021/11/22 06:51:36;;;;;;;11.53;2.55;;;;;;;8.81;83.78;99709.26;1662103;84;21003;-73
2021/11/22 06:54:03;;;;;;;4.25;2.37;;;;;;;8.83;82.66;99710.06;1664107;84;21003;-74
2021/11/22 06:56:31;;;;;;;16.77;4.20;;;;;;;8.85;81.94;99710.02;1674223;84;21011;-74
2021/11/22 06:58:58;;;;;;;9.78;4.67;;;;;;;8.89;82.05;99719.50;1657242;84;21715;-74
2021/11/22 07:01:25;;;;;;;2.15;1.77;;;;;;;8.88;82.25;99723.91;1672782;83;21572;-75
2021/11/22 07:03:52;;;;;;;1.98;1.17;;;;;;;8.83;78.37;99720.56;1692732;84;20995;-73
2021/11/22 07:06:19;;;;;;;4.67;2.37;;;;;;;8.66;77.66;99722.95;1672327;84;20979;-74
2021/11/22 07:08:45;;;;;;;2.47;1.52;;;;;;;8.58;81.33;99721.47;1677220;84;20991;-75
2021/11/22 07:11:12;;;;;;;2.27;1.12;;;;;;;8.63;81.93;99723.05;1676036;84;21222;-75
2021/11/22 07:13:39;;;;;;;1.87;0.90;;;;;;;8.67;81.14;99724.66;1687516;84;21451;-74
2021/11/22 07:16:07;;;;;;;2.20;1.10;;;;;;;8.67;78.04;99728.59;1674463;84;21469;-74
2021/11/22 07:18:34;;;;;;;1.87;1.30;;;;;;;8.64;79.26;99728.72;1682353;84;21018;-74
2021/11/22 07:21:01;;;;;;;5.67;0.93;;;;;;;8.57;77.57;99732.86;1694818;82;21163;-75
2021/11/22 07:23:28;;;;;;;1.15;0.75;;;;;;;8.57;77.04;99740.73;1688005;84;21806;-75
2021/11/22 07:25:55;;;;;;;4.97;1.70;;;;;;;8.60;78.12;99743.27;1690619;83;21478;-74
2021/11/22 07:28:23;;;;;;;2.10;1.10;;;;;;;8.67;78.38;99749.59;1682463;84;21002;-74
2021/11/22 07:30:53;;;;;;;2.77;0.70;;;;;;;8.74;77.41;99755.03;1653058;84;21055;-75
2021/11/22 07:33:20;;;;;;;3.42;2.22;;;;;;;8.83;77.00;99756.02;1692796;84;20994;-75
2021/11/22 07:35:48;;;;;;;5.35;2.70;;;;;;;8.90;77.49;99766.69;1684980;84;21165;-75
2021/11/22 07:38:15;;;;;;;8.93;4.22;;;;;;;8.92;76.19;99771.91;1693784;82;21054;-75
2021/11/22 07:40:42;;;;;;;6.75;2.70;;;;;;;8.89;76.95;99775.50;1697988;82;21579;-74
2021/11/22 07:43:10;;;;;;;4.22;2.67;;;;;;;8.87;77.79;99779.95;1696983;84;20938;-75
2021/11/22 07:45:37;;;;;;;7.40;3.92;;;;;;;8.85;78.04;99779.60;1681579;84;21007;-75
2021/11/22 07:48:07;;;;;;;3.95;1.90;;;;;;;8.72;78.64;99786.61;1690143;84;21675;-74
2021/11/22 07:50:34;;;;;;;1.90;0.90;;;;;;;8.64;77.47;99787.78;1635291;86;21005;-75
2021/11/22 07:53:01;;;;;;;1.17;0.78;;;;;;;8.49;75.62;99797.90;1680949;84;21068;-76
2021/11/22 07:55:28;;;;;;;1.32;0.65;;;;;;;8.30;76.55;99791.50;1687721;84;21062;-75
2021/11/22 07:57:57;;;;;;;2.22;0.95;;;;;;;8.14;78.00;99795.07;1693118;84;21101;-76
2021/11/22 08:00:25;;;;;;;7.85;1.30;;;;;;;8.08;81.21;99793.52;1699434;84;21160;-75
2021/11/22 08:02:52;;;;;;;0.88;0.70;;;;;;;8.05;79.74;99794.94;1710751;83;21563;-74
2021/11/22 08:05:19;;;;;;;0.98;0.68;;;;;;;8.01;77.96;99799.02;1719400;83;21524;-74
2021/11/22 08:07:46;;;;;;;2.52;1.07;;;;;;;7.87;75.99;99804.70;1711898;83;21535;-74
2021/11/22 08:12:52;;;;;;;11.53;1.30;;;;;;;7.59;77.16;99815.99;1718316;82;21484;-74
2021/11/22 08:15:21;;;;;;;9.50;1.47;;;;;;;7.53;76.60;99822.75;1722098;83;21605;-74
2021/11/22 08:17:49;;;;;;;8.60;1.15;;;;;;;7.51;77.18;99825.86;1722095;83;20977;-75
2021/11/22 08:20:17;;;;;;;1.62;0.80;;;;;;;7.51;76.54;99836.34;1722350;83;20986;-75
2021/11/22 08:22:45;;;;;;;2.75;1.17;;;;;;;7.47;76.16;99834.25;1722661;83;21021;-74
2021/11/22 08:25:12;;;;;;;3.22;1.52;;;;;;;7.43;76.82;99838.31;1722442;81;21159;-74
2021/11/22 08:27:39;;;;;;;1.12;0.72;;;;;;;7.41;77.03;99841.42;1722666;82;21491;-74
2021/11/22 08:30:16;;;;;;;1.35;1.20;;;;;;;7.40;77.46;99841.03;1722323;83;21029;-74
2021/11/22 08:32:45;;;;;;;3.20;0.72;;;;;;;7.44;77.44;99843.97;1721249;83;21068;-74
2021/11/22 08:35:17;;;;;;;11.20;2.33;;;;;;;7.47;76.65;99850.42;1713390;83;21857;-73
2021/11/22 08:37:44;;;;;;;;;;;;;;;7.48;77.95;99861.33;1725543;83;21148;-73
2021/11/22 08:40:15;;;;;;;0.88;0.50;;;;;;;7.48;77.50;99857.41;1722713;83;20489;-74
2021/11/22 08:42:45;;;;;;;0.80;0.55;;;;;;;7.49;76.19;99863.03;1720430;83;21017;-75
2021/11/22 08:45:13;;;;;;;0.75;0.65;;;;;;;7.48;75.60;99863.95;1686856;85;20941;-74
2021/11/22 08:47:41;;;;;;;0.50;0.50;;;;;;;7.48;76.64;99854.33;1670607;85;21467;-74
2021/11/22 08:50:08;;;;;;;1.05;0.70;;;;;;;7.55;75.07;99858.94;1670575;85;21140;-74
2021/11/22 08:52:36;;;;;;;2.00;1.15;;;;;;;7.56;74.56;99855.40;1671111;85;20993;-77
2021/11/22 08:55:05;;;;;;;1.25;0.80;;;;;;;7.63;75.23;99865.26;1668837;85;21461;-75
2021/11/22 08:57:33;;;;;;;6.95;1.12;;;;;;;7.69;76.31;99868.56;1670862;85;21017;-75
2021/11/22 09:00:00;;;;;;;3.27;0.93;;;;;;;7.75;75.24;99872.33;1669843;85;21482;-75
2021/11/22 09:02:27;;;;;;;1.85;0.95;;;;;;;7.78;75.73;99874.84;1660609;85;21106;-76
2021/11/22 09:04:59;;;;;;;36.15;4.70;;;;;;;7.88;77.63;99881.98;1636171;87;21014;-75
2021/11/22 09:07:26;;;;;;;4.67;1.57;;;;;;;7.97;77.40;99882.16;1643810;87;21379;-76
2021/11/22 09:09:54;;;;;;;1.40;1.10;;;;;;;8.07;76.62;99879.64;1647436;87;21022;-75
2021/11/22 09:12:24;;;;;;;1.67;0.82;;;;;;;8.13;76.36;99872.91;1647344;87;21018;-76
2021/11/22 09:14:51;;;;;;;0.50;0.50;;;;;;;8.23;77.16;99877.87;1645804;87;21066;-75
2021/11/22 09:17:18;;;;;;;0.90;0.53;;;;;;;8.39;78.17;99878.63;1645329;87;20974;-75
2021/11/22 09:19:47;;;;;;;3.80;1.45;;;;;;;8.61;74.03;99878.84;1646093;87;21040;-75
2021/11/22 09:22:13;;;;;;;1.37;0.90;;;;;;;8.85;72.92;99868.42;1641419;87;21002;-74
2021/11/22 09:24:40;;;;;;;1.60;0.60;;;;;;;9.04;71.73;99866.02;1643894;85;21106;-74
2021/11/22 09:27:07;;;;;;;1.22;0.80;;;;;;;9.30;70.63;99874.77;1648060;87;21147;-74
2021/11/22 09:29:36;;;;;;;11.08;1.50;;;;;;;9.50;69.54;99880.59;1691428;84;21046;-73
2021/11/22 09:32:05;;;;;;;1.70;0.85;;;;;;;9.66;68.39;99875.17;1695321;83;21454;-74
2021/11/22 09:34:32;;;;;;;3.62;0.95;;;;;;;9.82;67.38;99876.34;1695609;83;20994;-74
2021/11/22 09:36:59;;;;;;;1.85;0.88;;;;;;;9.95;66.14;99877.17;1695350;83;21030;-75
2021/11/22 09:39:27;;;;;;;1.30;0.70;;;;;;;10.18;65.31;99877.13;1695375;84;21948;-74
2021/11/22 09:41:54;;;;;;;3.37;0.80;;;;;;;10.38;62.65;99874.21;1686500;84;21513;-74
2021/11/22 09:44:21;;;;;;;25.82;6.40;;;;;;;10.40;60.32;99878.48;1695797;84;21471;-75
2021/11/22 09:46:48;;;;;;;14.03;1.67;;;;;;;10.28;62.17;99875.89;1695547;84;20926;-74
2021/11/22 09:49:15;;;;;;;10.00;1.87;;;;;;;10.19;63.92;99884.13;1692257;84;21038;-74
2021/11/22 09:51:42;;;;;;;10.20;1.90;;;;;;;10.05;64.22;99883.78;1695589;84;21087;-74
2021/11/22 09:54:09;;;;;;;3.20;1.22;;;;;;;9.93;64.14;99884.27;1695769;83;21066;-74
2021/11/22 09:56:37;;;;;;;8.88;1.60;;;;;;;9.77;62.09;99888.78;1695629;84;21049;-74
2021/11/22 09:59:06;;;;;;;2.72;0.90;;;;;;;9.58;64.63;99887.30;1695708;83;21026;-73
2021/11/22 10:01:35;;;;;;;7.22;1.00;;;;;;;9.51;65.32;99891.53;1695733;84;21910;-74
2021/11/22 10:04:07;;;;;;;2.83;0.90;;;;;;;9.36;63.86;99896.44;1674076;83;21811;-74
2021/11/22 10:07:00;;;;;;;4.08;0.65;;;;;;;9.17;63.09;99888.78;1707418;83;21022;-74
2021/11/22 10:09:40;;;;;;;2.80;0.70;;;;;;;8.92;62.01;99889.63;1705330;83;20989;-75
2021/11/22 10:12:24;;;;;;;24.80;2.35;;;;;;;8.63;63.23;99885.80;1707879;83;21057;-74
2021/11/22 10:14:56;;;;;;;3.33;0.93;;;;;;;8.50;64.64;99889.30;1700059;83;21010;-74
2021/11/22 10:17:33;;;;;;;3.90;1.20;;;;;;;8.45;66.68;99895.16;1692878;83;22145;-75
2021/11/22 10:20:17;;;;;;;4.10;1.22;;;;;;;8.40;65.43;99896.61;1697518;83;21022;-74
2021/11/22 10:22:53;;;;;;;2.77;1.00;;;;;;;8.30;66.44;99891.20;1681352;83;21316;-74
2021/11/22 10:25:37;;;;;;;4.70;0.80;;;;;;;8.25;65.35;99888.72;1683117;83;20970;-75
2021/11/22 10:28:13;;;;;;;0.88;0.80;;;;;;;8.22;65.59;99888.82;1697808;83;21004;-75
2021/11/22 10:30:50;;;;;;;4.70;1.05;;;;;;;8.26;65.18;99891.77;1698174;83;21179;-74
2021/11/22 10:33:22;;;;;;;14.38;3.87;;;;;;;8.28;65.04;99895.63;1697436;83;20982;-74
2021/11/22 10:35:52;;;;;;;3.67;1.37;;;;;;;8.28;65.50;99895.63;1710439;83;21082;-75
2021/11/22 10:38:25;;;;;;;4.20;1.92;;;;;;;8.26;65.72;99892.19;1665597;85;21031;-74
2021/11/22 10:40:57;;;;;;;3.17;1.92;;;;;;;8.23;65.92;99896.23;1699030;83;21081;-74
2021/11/22 10:43:35;;;;;;;2.42;1.10;;;;;;;8.20;68.64;99893.25;1688231;83;21065;-75
2021/11/22 10:46:06;;;;;;;4.00;1.15;;;;;;;8.19;67.23;99895.03;1696650;83;21109;-75
2021/11/22 10:48:33;;;;;;;13.60;1.52;;;;;;;8.18;66.82;99894.60;1684592;83;21008;-74
2021/11/22 10:51:16;;;;;;;6.45;1.30;;;;;;;8.15;68.20;99895.17;1691446;83;21113;-73
2021/11/22 10:53:50;;;;;;;3.00;1.10;;;;;;;8.12;66.87;99893.50;1679921;83;21014;-74
2021/11/22 10:56:20;;;;;;;4.78;1.40;;;;;;;8.09;65.19;99889.64;1684399;83;21151;-74
2021/11/22 10:59:08;;;;;;;2.35;1.42;;;;;;;7.98;65.06;99895.23;1683871;83;21565;-73
2021/11/22 11:01:46;;;;;;;4.47;1.52;;;;;;;7.94;65.84;99892.75;1694838;83;21047;-73
2021/11/22 11:04:25;;;;;;;2.72;1.92;;;;;;;7.91;64.66;99896.75;1690523;83;20990;-74
2021/11/22 11:07:07;;;;;;;3.75;1.20;;;;;;;7.93;68.71;99901.50;1683012;84;20995;-74
2021/11/22 11:09:36;;;;;;;;;;;;;;;7.98;65.14;99903.53;1690922;84;21121;-74
2021/11/22 11:12:13;;;;;;;2.55;1.10;;;;;;;7.99;64.21;99903.49;1697842;84;20479;-73
2021/11/22 11:14:48;;;;;;;1.25;1.00;;;;;;;8.01;63.23;99899.52;1699002;84;21826;-73
2021/11/22 11:17:35;;;;;;;4.03;1.50;;;;;;;8.04;63.44;99905.12;1700460;84;20991;-73
2021/11/22 11:20:11;;;;;;;2.62;1.10;;;;;;;8.08;63.81;99904.98;1694651;84;21018;-73
2021/11/22 11:22:41;;;;;;;1.92;1.32;;;;;;;8.08;63.33;99906.30;1702019;84;22198;-73
2021/11/22 11:25:08;;;;;;;6.75;1.10;;;;;;;8.01;63.16;99904.77;1701564;84;20979;-73
2021/11/22 11:27:39;;;;;;;2.22;1.05;;;;;;;7.92;63.90;99918.16;1704780;84;20982;-73
2021/11/22 11:30:08;;;;;;;1.70;0.80;;;;;;;7.92;66.31;99918.16;1704833;84;21681;-74
2021/11/22 11:35:19;;;;;;;4.60;1.00;;;;;;;7.88;61.88;99912.59;1789021;79;28130;-74
2021/11/22 11:38:16;;;;;;;1.65;1.00;;;;;;;7.71;62.06;99913.94;1748116;81;21061;-73
2021/11/22 11:41:13;;;;;;;6.53;2.02;;;;;;;7.64;62.85;99922.00;1736197;81;21672;-73
2021/11/22 11:43:59;;;;;;;6.65;1.80;;;;;;;7.58;64.28;99915.19;1751066;81;21032;-73
2021/11/22 11:46:56;;;;;;;2.15;1.10;;;;;;;7.63;66.27;99918.53;1740353;81;21615;-74
2021/11/22 11:49:33;;;;;;;7.08;1.35;;;;;;;7.70;68.40;99918.75;1711474;82;21572;-74